sensor_id;sensor_type;location;lat;lon;timestamp;pressure;altitude;pressure_sealevel;temperature;humidity
22830;BME280;11581;51.250;6.778;2023-07-08T00:00:14;101140.56;;;26.89;30.19
22830;BME280;11581;51.250;6.778;2023-07-08T00:02:45;101163.69;;;26.98;30.25
22830;BME280;11581;51.250;6.778;2023-07-08T00:05:14;101162.53;;;26.94;30.64
22830;BME280;11581;51.250;6.778;2023-07-08T00:07:41;101156.25;;;26.94;30.63
22830;BME280;11581;51.250;6.778;2023-07-08T00:10:13;101106.63;;;26.62;30.58
22830;BME280;11581;51.250;6.778;2023-07-08T00:12:41;101163.03;;;26.91;30.31
22830;BME280;11581;51.250;6.778;2023-07-08T00:15:08;101164.09;;;26.90;30.30
22830;BME280;11581;51.250;6.778;2023-07-08T00:17:35;101156.13;;;26.89;30.56
22830;BME280;11581;51.250;6.778;2023-07-08T00:20:11;101158.03;;;26.88;30.71
22830;BME280;11581;51.250;6.778;2023-07-08T00:22:40;101156.13;;;26.89;30.27
22830;BME280;11581;51.250;6.778;2023-07-08T00:25:07;101151.75;;;26.88;30.67
22830;BME280;11581;51.250;6.778;2023-07-08T00:27:35;101150.91;;;26.87;30.81
22830;BME280;11581;51.250;6.778;2023-07-08T00:30:12;101149.25;;;26.86;31.11
22830;BME280;11581;51.250;6.778;2023-07-08T00:32:43;101154.72;;;26.86;30.57
22830;BME280;11581;51.250;6.778;2023-07-08T00:35:10;101155.78;;;26.85;30.77
22830;BME280;11581;51.250;6.778;2023-07-08T00:37:36;101159.59;;;26.84;30.94
22830;BME280;11581;51.250;6.778;2023-07-08T00:40:13;101152.97;;;26.80;30.76
22830;BME280;11581;51.250;6.778;2023-07-08T00:42:43;101155.69;;;26.80;31.16
22830;BME280;11581;51.250;6.778;2023-07-08T00:45:18;101151.56;;;26.78;31.05
22830;BME280;11581;51.250;6.778;2023-07-08T00:47:47;101151.19;;;26.74;31.15
22830;BME280;11581;51.250;6.778;2023-07-08T00:50:15;101157.16;;;26.71;30.83
22830;BME280;11581;51.250;6.778;2023-07-08T00:52:42;101150.53;;;26.67;31.20
22830;BME280;11581;51.250;6.778;2023-07-08T00:55:10;101151.00;;;26.64;31.04
22830;BME280;11581;51.250;6.778;2023-07-08T00:57:39;101150.59;;;26.61;31.37
22830;BME280;11581;51.250;6.778;2023-07-08T01:00:12;101124.66;;;26.35;31.66
22830;BME280;11581;51.250;6.778;2023-07-08T01:02:43;101113.75;;;26.24;31.52
22830;BME280;11581;51.250;6.778;2023-07-08T01:05:14;101157.31;;;26.53;31.74
22830;BME280;11581;51.250;6.778;2023-07-08T01:07:46;101152.31;;;26.50;31.56
22830;BME280;11581;51.250;6.778;2023-07-08T01:10:19;101146.25;;;26.48;31.96
22830;BME280;11581;51.250;6.778;2023-07-08T01:12:51;101144.84;;;26.46;32.07
22830;BME280;11581;51.250;6.778;2023-07-08T01:15:23;101137.94;;;26.43;31.98
22830;BME280;11581;51.250;6.778;2023-07-08T01:17:52;101140.09;;;26.41;31.88
22830;BME280;11581;51.250;6.778;2023-07-08T01:20:20;101143.88;;;26.40;32.23
22830;BME280;11581;51.250;6.778;2023-07-08T01:22:49;101143.31;;;26.38;32.49
22830;BME280;11581;51.250;6.778;2023-07-08T01:25:17;101137.25;;;26.36;32.68
22830;BME280;11581;51.250;6.778;2023-07-08T01:27:46;101134.75;;;26.35;33.31
22830;BME280;11581;51.250;6.778;2023-07-08T01:30:14;101137.72;;;26.33;32.74
22830;BME280;11581;51.250;6.778;2023-07-08T01:32:46;101134.66;;;26.30;33.44
22830;BME280;11581;51.250;6.778;2023-07-08T01:35:14;101121.59;;;26.20;33.43
22830;BME280;11581;51.250;6.778;2023-07-08T01:37:43;101118.84;;;26.20;33.36
22830;BME280;11581;51.250;6.778;2023-07-08T01:40:22;101128.25;;;26.24;33.56
22830;BME280;11581;51.250;6.778;2023-07-08T01:42:50;101126.56;;;26.23;33.40
22830;BME280;11581;51.250;6.778;2023-07-08T01:45:20;101121.59;;;26.20;34.40
22830;BME280;11581;51.250;6.778;2023-07-08T01:47:50;101122.06;;;26.17;34.12
22830;BME280;11581;51.250;6.778;2023-07-08T01:50:18;101125.88;;;26.16;33.94
22830;BME280;11581;51.250;6.778;2023-07-08T01:52:46;101127.44;;;26.12;34.09
22830;BME280;11581;51.250;6.778;2023-07-08T01:55:13;101123.53;;;26.08;33.79
22830;BME280;11581;51.250;6.778;2023-07-08T01:57:41;101125.66;;;26.06;34.44
22830;BME280;11581;51.250;6.778;2023-07-08T02:00:09;101121.75;;;26.02;34.27
22830;BME280;11581;51.250;6.778;2023-07-08T02:02:44;101114.03;;;25.99;34.71
22830;BME280;11581;51.250;6.778;2023-07-08T02:05:11;101117.19;;;25.96;34.45
22830;BME280;11581;51.250;6.778;2023-07-08T02:07:40;101119.56;;;25.92;34.52
22830;BME280;11581;51.250;6.778;2023-07-08T02:10:07;101113.78;;;25.89;34.50
22830;BME280;11581;51.250;6.778;2023-07-08T02:12:34;101111.84;;;25.78;34.41
22830;BME280;11581;51.250;6.778;2023-07-08T02:15:05;101113.88;;;25.82;35.05
22830;BME280;11581;51.250;6.778;2023-07-08T02:17:32;101115.19;;;25.80;34.98
22830;BME280;11581;51.250;6.778;2023-07-08T02:19:58;101110.22;;;25.77;35.10
22830;BME280;11581;51.250;6.778;2023-07-08T02:22:25;101110.44;;;25.75;35.25
22830;BME280;11581;51.250;6.778;2023-07-08T02:24:51;101098.91;;;25.73;35.41
22830;BME280;11581;51.250;6.778;2023-07-08T02:27:18;101099.38;;;25.70;35.70
22830;BME280;11581;51.250;6.778;2023-07-08T02:29:45;101109.13;;;25.66;35.96
22830;BME280;11581;51.250;6.778;2023-07-08T02:32:13;101095.38;;;25.61;35.98
22830;BME280;11581;51.250;6.778;2023-07-08T02:34:39;101006.38;;;25.08;35.54
22830;BME280;11581;51.250;6.778;2023-07-08T02:37:06;101091.31;;;25.52;35.70
22830;BME280;11581;51.250;6.778;2023-07-08T02:39:33;101086.56;;;25.48;35.89
22830;BME280;11581;51.250;6.778;2023-07-08T02:42:00;101074.81;;;25.36;35.88
22830;BME280;11581;51.250;6.778;2023-07-08T02:44:27;101087.97;;;25.39;35.86
22830;BME280;11581;51.250;6.778;2023-07-08T02:46:53;101084.31;;;25.33;36.16
22830;BME280;11581;51.250;6.778;2023-07-08T02:49:22;101086.63;;;25.30;36.36
22830;BME280;11581;51.250;6.778;2023-07-08T02:51:49;101094.47;;;25.26;35.85
22830;BME280;11581;51.250;6.778;2023-07-08T02:54:15;101091.13;;;25.24;36.05
22830;BME280;11581;51.250;6.778;2023-07-08T02:56:42;101092.31;;;25.17;36.29
22830;BME280;11581;51.250;6.778;2023-07-08T02:59:09;101095.03;;;25.17;36.20
22830;BME280;11581;51.250;6.778;2023-07-08T03:01:35;100917.31;;;24.08;35.98
22830;BME280;11581;51.250;6.778;2023-07-08T03:04:07;101103.81;;;25.19;36.15
22830;BME280;11581;51.250;6.778;2023-07-08T03:06:35;101101.94;;;25.19;36.44
22830;BME280;11581;51.250;6.778;2023-07-08T03:09:02;101110.13;;;25.19;36.57
22830;BME280;11581;51.250;6.778;2023-07-08T03:11:28;100926.13;;;24.10;36.78
22830;BME280;11581;51.250;6.778;2023-07-08T03:13:55;101098.22;;;25.14;36.34
22830;BME280;11581;51.250;6.778;2023-07-08T03:16:22;101093.22;;;25.11;36.54
22830;BME280;11581;51.250;6.778;2023-07-08T03:18:49;101096.44;;;25.08;37.10
22830;BME280;11581;51.250;6.778;2023-07-08T03:21:17;101098.56;;;25.06;37.26
22830;BME280;11581;51.250;6.778;2023-07-08T03:23:47;101103.88;;;25.01;37.91
22830;BME280;11581;51.250;6.778;2023-07-08T03:26:15;101100.59;;;24.99;37.57
22830;BME280;11581;51.250;6.778;2023-07-08T03:28:44;101106.72;;;24.94;37.82
22830;BME280;11581;51.250;6.778;2023-07-08T03:31:11;101107.78;;;24.93;38.05
22830;BME280;11581;51.250;6.778;2023-07-08T03:33:38;101103.03;;;24.89;38.15
22830;BME280;11581;51.250;6.778;2023-07-08T03:36:09;101107.03;;;24.86;38.62
22830;BME280;11581;51.250;6.778;2023-07-08T03:38:37;101110.00;;;24.85;37.76
22830;BME280;11581;51.250;6.778;2023-07-08T03:41:05;101097.28;;;24.79;38.40
22830;BME280;11581;51.250;6.778;2023-07-08T03:43:32;101103.81;;;24.78;38.43
22830;BME280;11581;51.250;6.778;2023-07-08T03:45:58;101106.69;;;24.83;38.79
22830;BME280;11581;51.250;6.778;2023-07-08T03:48:25;101106.69;;;24.83;38.80
22830;BME280;11581;51.250;6.778;2023-07-08T03:50:52;101101.25;;;24.83;38.53
22830;BME280;11581;51.250;6.778;2023-07-08T03:53:19;101100.41;;;24.82;38.60
22830;BME280;11581;51.250;6.778;2023-07-08T03:55:46;101092.09;;;24.77;39.09
22830;BME280;11581;51.250;6.778;2023-07-08T03:58:14;101096.81;;;24.82;39.45
22830;BME280;11581;51.250;6.778;2023-07-08T04:00:41;101113.19;;;24.82;39.08
22830;BME280;11581;51.250;6.778;2023-07-08T04:03:10;101111.53;;;24.81;39.83
22830;BME280;11581;51.250;6.778;2023-07-08T04:05:37;101105.47;;;24.79;39.77
22830;BME280;11581;51.250;6.778;2023-07-08T04:08:04;101110.13;;;24.78;39.93
22830;BME280;11581;51.250;6.778;2023-07-08T04:10:31;101115.81;;;24.77;39.80
22830;BME280;11581;51.250;6.778;2023-07-08T04:12:57;101118.53;;;24.77;39.60
22830;BME280;11581;51.250;6.778;2023-07-08T04:15:25;101120.38;;;24.65;39.74
22830;BME280;11581;51.250;6.778;2023-07-08T04:17:53;101129.44;;;24.77;39.71
22830;BME280;11581;51.250;6.778;2023-07-08T04:20:22;101126.47;;;24.78;39.55
22830;BME280;11581;51.250;6.778;2023-07-08T04:22:48;101117.34;;;24.73;39.46
22830;BME280;11581;51.250;6.778;2023-07-08T04:25:15;101128.38;;;24.78;39.36
22830;BME280;11581;51.250;6.778;2023-07-08T04:27:42;101125.63;;;24.78;39.45
22830;BME280;11581;51.250;6.778;2023-07-08T04:30:17;101125.63;;;24.78;40.16
22830;BME280;11581;51.250;6.778;2023-07-08T04:32:49;101121.84;;;24.79;39.37
22830;BME280;11581;51.250;6.778;2023-07-08T04:35:16;101126.84;;;24.82;38.72
22830;BME280;11581;51.250;6.778;2023-07-08T04:37:42;101124.72;;;24.84;38.79
22830;BME280;11581;51.250;6.778;2023-07-08T04:40:16;101095.13;;;24.69;38.40
22830;BME280;11581;51.250;6.778;2023-07-08T04:42:45;101122.13;;;24.89;38.29
22830;BME280;11581;51.250;6.778;2023-07-08T04:45:14;101134.25;;;24.93;38.66
22830;BME280;11581;51.250;6.778;2023-07-08T04:47:41;101117.50;;;24.89;38.22
22830;BME280;11581;51.250;6.778;2023-07-08T04:50:10;101128.78;;;24.93;38.20
22830;BME280;11581;51.250;6.778;2023-07-08T04:52:37;101127.97;;;25.04;38.11
22830;BME280;11581;51.250;6.778;2023-07-08T04:55:04;101128.13;;;25.09;37.86
22830;BME280;11581;51.250;6.778;2023-07-08T04:57:30;101090.13;;;24.96;38.29
22830;BME280;11581;51.250;6.778;2023-07-08T04:59:57;101117.72;;;25.17;37.73
22830;BME280;11581;51.250;6.778;2023-07-08T05:02:24;101123.19;;;25.29;37.77
22830;BME280;11581;51.250;6.778;2023-07-08T05:04:50;101118.94;;;25.33;37.34
22830;BME280;11581;51.250;6.778;2023-07-08T05:07:18;101124.31;;;25.39;37.36
22830;BME280;11581;51.250;6.778;2023-07-08T05:09:45;101126.13;;;25.57;37.85
22830;BME280;11581;51.250;6.778;2023-07-08T05:12:11;101122.69;;;25.73;37.75
22830;BME280;11581;51.250;6.778;2023-07-08T05:14:38;101041.69;;;25.44;37.30
22830;BME280;11581;51.250;6.778;2023-07-08T05:17:05;101130.72;;;26.26;37.74
22830;BME280;11581;51.250;6.778;2023-07-08T05:19:32;101126.88;;;26.61;37.52
22830;BME280;11581;51.250;6.778;2023-07-08T05:21:58;101086.88;;;26.88;37.01
22830;BME280;11581;51.250;6.778;2023-07-08T05:24:26;101131.88;;;27.53;36.45
22830;BME280;11581;51.250;6.778;2023-07-08T05:26:53;101126.94;;;28.05;35.84
22830;BME280;11581;51.250;6.778;2023-07-08T05:29:20;101130.69;;;28.59;34.60
22830;BME280;11581;51.250;6.778;2023-07-08T05:31:46;101129.66;;;29.13;33.53
22830;BME280;11581;51.250;6.778;2023-07-08T05:34:14;101122.44;;;29.65;32.82
22830;BME280;11581;51.250;6.778;2023-07-08T05:36:41;101010.47;;;29.45;31.99
22830;BME280;11581;51.250;6.778;2023-07-08T05:39:07;101128.78;;;30.64;31.50
22830;BME280;11581;51.250;6.778;2023-07-08T05:41:35;101097.53;;;30.95;29.79
22830;BME280;11581;51.250;6.778;2023-07-08T05:44:02;101117.13;;;31.63;29.92
22830;BME280;11581;51.250;6.778;2023-07-08T05:46:29;101074.66;;;31.84;28.83
22830;BME280;11581;51.250;6.778;2023-07-08T05:48:56;101086.09;;;32.32;28.10
22830;BME280;11581;51.250;6.778;2023-07-08T05:51:22;101101.91;;;32.75;27.05
22830;BME280;11581;51.250;6.778;2023-07-08T05:53:49;101109.78;;;33.01;26.35
22830;BME280;11581;51.250;6.778;2023-07-08T05:56:15;101110.00;;;33.05;26.08
22830;BME280;11581;51.250;6.778;2023-07-08T05:58:44;101113.06;;;33.03;25.72
22830;BME280;11581;51.250;6.778;2023-07-08T06:01:11;101099.00;;;33.00;26.56
22830;BME280;11581;51.250;6.778;2023-07-08T06:03:37;101115.22;;;33.11;26.39
22830;BME280;11581;51.250;6.778;2023-07-08T06:06:04;101100.94;;;33.33;26.37
22830;BME280;11581;51.250;6.778;2023-07-08T06:08:31;101114.50;;;33.68;26.44
22830;BME280;11581;51.250;6.778;2023-07-08T06:10:58;101117.09;;;34.12;26.07
22830;BME280;11581;51.250;6.778;2023-07-08T06:13:25;101122.34;;;34.60;25.64
22830;BME280;11581;51.250;6.778;2023-07-08T06:15:53;101114.00;;;35.02;24.54
22830;BME280;11581;51.250;6.778;2023-07-08T06:18:19;101130.06;;;35.56;23.76
22830;BME280;11581;51.250;6.778;2023-07-08T06:20:53;101133.25;;;35.95;23.19
22830;BME280;11581;51.250;6.778;2023-07-08T06:23:20;101134.53;;;36.30;22.67
22830;BME280;11581;51.250;6.778;2023-07-08T06:25:47;101106.94;;;36.47;22.08
22830;BME280;11581;51.250;6.778;2023-07-08T06:28:13;101105.88;;;36.70;22.07
22830;BME280;11581;51.250;6.778;2023-07-08T06:30:40;101109.56;;;36.92;21.35
22830;BME280;11581;51.250;6.778;2023-07-08T06:33:08;101104.38;;;36.99;21.08
22830;BME280;11581;51.250;6.778;2023-07-08T06:35:36;101109.94;;;37.35;21.19
22830;BME280;11581;51.250;6.778;2023-07-08T06:38:03;101121.56;;;37.59;20.68
22830;BME280;11581;51.250;6.778;2023-07-08T06:40:31;101128.47;;;37.92;20.42
22830;BME280;11581;51.250;6.778;2023-07-08T06:42:58;101123.22;;;38.21;20.07
22830;BME280;11581;51.250;6.778;2023-07-08T06:45:40;101125.28;;;38.46;19.69
22830;BME280;11581;51.250;6.778;2023-07-08T06:48:08;101115.28;;;38.45;19.13
22830;BME280;11581;51.250;6.778;2023-07-08T06:50:35;101074.91;;;38.26;19.25
22830;BME280;11581;51.250;6.778;2023-07-08T06:53:01;101129.13;;;38.67;18.78
22830;BME280;11581;51.250;6.778;2023-07-08T06:55:28;100995.88;;;37.96;18.85
22830;BME280;11581;51.250;6.778;2023-07-08T06:57:55;101110.28;;;38.73;18.99
22830;BME280;11581;51.250;6.778;2023-07-08T07:00:22;101114.22;;;38.80;18.68
22830;BME280;11581;51.250;6.778;2023-07-08T07:02:48;101092.41;;;38.82;19.17
22830;BME280;11581;51.250;6.778;2023-07-08T07:05:16;101122.63;;;39.14;18.47
22830;BME280;11581;51.250;6.778;2023-07-08T07:07:44;101120.97;;;39.30;18.47
22830;BME280;11581;51.250;6.778;2023-07-08T07:10:10;101107.88;;;39.39;18.53
22830;BME280;11581;51.250;6.778;2023-07-08T07:12:40;101095.53;;;39.57;18.03
22830;BME280;11581;51.250;6.778;2023-07-08T07:15:07;101112.38;;;39.87;18.37
22830;BME280;11581;51.250;6.778;2023-07-08T07:17:34;101113.41;;;40.11;18.06
22830;BME280;11581;51.250;6.778;2023-07-08T07:20:01;101107.22;;;40.35;17.59
22830;BME280;11581;51.250;6.778;2023-07-08T07:22:29;101107.16;;;40.52;17.30
22830;BME280;11581;51.250;6.778;2023-07-08T07:24:56;101109.31;;;40.75;17.34
22830;BME280;11581;51.250;6.778;2023-07-08T07:27:22;101082.50;;;40.74;17.24
22830;BME280;11581;51.250;6.778;2023-07-08T07:29:50;101120.81;;;40.94;16.92
22830;BME280;11581;51.250;6.778;2023-07-08T07:32:18;101099.69;;;40.85;16.41
22830;BME280;11581;51.250;6.778;2023-07-08T07:34:46;101108.84;;;40.94;16.71
22830;BME280;11581;51.250;6.778;2023-07-08T07:37:14;101116.28;;;40.90;16.67
22830;BME280;11581;51.250;6.778;2023-07-08T07:39:43;101123.28;;;40.96;16.69
22830;BME280;11581;51.250;6.778;2023-07-08T07:42:11;101119.94;;;41.02;16.96
22830;BME280;11581;51.250;6.778;2023-07-08T07:44:38;101060.81;;;40.71;16.82
22830;BME280;11581;51.250;6.778;2023-07-08T07:47:06;101119.34;;;41.17;16.59
22830;BME280;11581;51.250;6.778;2023-07-08T07:49:32;101112.25;;;41.20;16.69
22830;BME280;11581;51.250;6.778;2023-07-08T07:51:59;101123.16;;;41.33;16.49
22830;BME280;11581;51.250;6.778;2023-07-08T07:54:26;101091.56;;;41.33;16.23
22830;BME280;11581;51.250;6.778;2023-07-08T07:56:54;101116.28;;;41.63;15.87
22830;BME280;11581;51.250;6.778;2023-07-08T07:59:21;101105.13;;;41.75;15.75
22830;BME280;11581;51.250;6.778;2023-07-08T08:01:48;101064.75;;;41.76;15.67
22830;BME280;11581;51.250;6.778;2023-07-08T08:04:17;101120.47;;;42.26;15.12
22830;BME280;11581;51.250;6.778;2023-07-08T08:06:44;101127.03;;;42.42;15.04
22830;BME280;11581;51.250;6.778;2023-07-08T08:09:10;101103.44;;;42.55;15.38
22830;BME280;11581;51.250;6.778;2023-07-08T08:11:37;101112.28;;;42.81;15.03
22830;BME280;11581;51.250;6.778;2023-07-08T08:14:05;101121.66;;;43.01;15.02
22830;BME280;11581;51.250;6.778;2023-07-08T08:16:32;101120.59;;;43.17;14.66
22830;BME280;11581;51.250;6.778;2023-07-08T08:18:59;101121.16;;;43.23;14.22
22830;BME280;11581;51.250;6.778;2023-07-08T08:21:25;101125.91;;;43.34;14.35
22830;BME280;11581;51.250;6.778;2023-07-08T08:23:52;101135.69;;;43.40;14.27
22830;BME280;11581;51.250;6.778;2023-07-08T08:26:18;101145.38;;;43.43;13.86
22830;BME280;11581;51.250;6.778;2023-07-08T08:28:45;101136.59;;;43.44;14.34
22830;BME280;11581;51.250;6.778;2023-07-08T08:31:13;101137.56;;;43.48;13.93
22830;BME280;11581;51.250;6.778;2023-07-08T08:33:40;101121.63;;;43.52;14.42
22830;BME280;11581;51.250;6.778;2023-07-08T08:36:06;101134.16;;;43.70;14.17
22830;BME280;11581;51.250;6.778;2023-07-08T08:38:33;101142.50;;;43.83;14.09
22830;BME280;11581;51.250;6.778;2023-07-08T08:41:03;101137.94;;;43.90;13.42
22830;BME280;11581;51.250;6.778;2023-07-08T08:43:34;101158.84;;;43.93;13.22
22830;BME280;11581;51.250;6.778;2023-07-08T08:46:04;101122.13;;;43.70;13.54
22830;BME280;11581;51.250;6.778;2023-07-08T08:48:42;101155.00;;;43.69;13.21
22830;BME280;11581;51.250;6.778;2023-07-08T08:51:14;101124.63;;;43.32;13.52
22830;BME280;11581;51.250;6.778;2023-07-08T08:53:43;101133.88;;;43.32;13.53
22830;BME280;11581;51.250;6.778;2023-07-08T08:56:16;101130.13;;;43.28;14.00
22830;BME280;11581;51.250;6.778;2023-07-08T08:58:51;101126.09;;;43.41;13.78
22830;BME280;11581;51.250;6.778;2023-07-08T09:01:20;101116.03;;;43.52;14.09
22830;BME280;11581;51.250;6.778;2023-07-08T09:03:50;101141.72;;;43.82;13.65
22830;BME280;11581;51.250;6.778;2023-07-08T09:06:20;101136.56;;;44.00;13.79
22830;BME280;11581;51.250;6.778;2023-07-08T09:08:48;101122.25;;;44.05;13.72
22830;BME280;11581;51.250;6.778;2023-07-08T09:11:34;101142.84;;;44.40;13.50
22830;BME280;11581;51.250;6.778;2023-07-08T09:14:03;101142.44;;;44.57;13.34
22830;BME280;11581;51.250;6.778;2023-07-08T09:16:39;101137.72;;;44.61;13.38
22830;BME280;11581;51.250;6.778;2023-07-08T09:19:12;101141.00;;;44.63;13.03
22830;BME280;11581;51.250;6.778;2023-07-08T09:21:44;101152.63;;;44.61;12.71
22830;BME280;11581;51.250;6.778;2023-07-08T09:24:17;101133.56;;;44.55;12.92
22830;BME280;11581;51.250;6.778;2023-07-08T09:26:47;101127.38;;;44.49;13.04
22830;BME280;11581;51.250;6.778;2023-07-08T09:29:17;101146.53;;;44.44;12.96
22830;BME280;11581;51.250;6.778;2023-07-08T09:31:44;101152.63;;;44.30;13.26
22830;BME280;11581;51.250;6.778;2023-07-08T09:34:14;101154.06;;;44.09;13.08
22830;BME280;11581;51.250;6.778;2023-07-08T09:36:44;101098.28;;;43.48;13.48
22830;BME280;11581;51.250;6.778;2023-07-08T09:39:12;101148.63;;;43.57;13.85
22830;BME280;11581;51.250;6.778;2023-07-08T09:41:40;101151.81;;;43.43;14.16
22830;BME280;11581;51.250;6.778;2023-07-08T09:44:18;101119.25;;;43.27;13.90
22830;BME280;11581;51.250;6.778;2023-07-08T09:46:47;101149.00;;;43.55;14.27
22830;BME280;11581;51.250;6.778;2023-07-08T09:49:21;101087.78;;;43.33;13.86
22830;BME280;11581;51.250;6.778;2023-07-08T09:51:49;101146.50;;;43.82;13.90
22830;BME280;11581;51.250;6.778;2023-07-08T09:54:17;101136.19;;;43.86;13.92
22830;BME280;11581;51.250;6.778;2023-07-08T09:56:50;101143.09;;;44.04;13.61
22830;BME280;11581;51.250;6.778;2023-07-08T09:59:22;101128.16;;;44.15;13.31
22830;BME280;11581;51.250;6.778;2023-07-08T10:01:50;101114.03;;;44.27;13.83
22830;BME280;11581;51.250;6.778;2023-07-08T10:04:19;101126.94;;;44.63;13.44
22830;BME280;11581;51.250;6.778;2023-07-08T10:06:47;101132.31;;;44.87;13.13
22830;BME280;11581;51.250;6.778;2023-07-08T10:09:19;101117.41;;;45.02;13.27
22830;BME280;11581;51.250;6.778;2023-07-08T10:11:48;101117.16;;;45.29;12.87
22830;BME280;11581;51.250;6.778;2023-07-08T10:14:24;101122.88;;;45.52;12.99
22830;BME280;11581;51.250;6.778;2023-07-08T10:16:52;101128.53;;;45.75;12.92
22830;BME280;11581;51.250;6.778;2023-07-08T10:19:21;101127.38;;;45.98;12.35
22830;BME280;11581;51.250;6.778;2023-07-08T10:21:53;101134.16;;;46.16;12.49
22830;BME280;11581;51.250;6.778;2023-07-08T10:24:33;101105.97;;;46.16;12.24
22830;BME280;11581;51.250;6.778;2023-07-08T10:27:11;101095.66;;;46.27;12.01
22830;BME280;11581;51.250;6.778;2023-07-08T10:29:46;101107.78;;;46.54;12.52
22830;BME280;11581;51.250;6.778;2023-07-08T10:32:24;101084.94;;;46.62;12.21
22830;BME280;11581;51.250;6.778;2023-07-08T10:35:01;101103.81;;;46.84;12.07
22830;BME280;11581;51.250;6.778;2023-07-08T10:37:41;101090.19;;;46.93;12.19
22830;BME280;11581;51.250;6.778;2023-07-08T10:40:20;101097.44;;;47.20;11.88
22830;BME280;11581;51.250;6.778;2023-07-08T10:43:13;101108.19;;;47.44;12.13
22830;BME280;11581;51.250;6.778;2023-07-08T10:45:49;101105.56;;;47.62;11.68
22830;BME280;11581;51.250;6.778;2023-07-08T10:48:32;101105.69;;;47.73;11.58
22830;BME280;11581;51.250;6.778;2023-07-08T10:51:13;101106.88;;;47.72;11.82
22830;BME280;11581;51.250;6.778;2023-07-08T10:53:54;101091.81;;;47.57;11.75
22830;BME280;11581;51.250;6.778;2023-07-08T10:56:31;101097.94;;;47.29;11.47
22830;BME280;11581;51.250;6.778;2023-07-08T10:59:26;101092.31;;;47.00;12.28
22830;BME280;11581;51.250;6.778;2023-07-08T11:02:15;101094.13;;;46.85;12.35
22830;BME280;11581;51.250;6.778;2023-07-08T11:04:51;101055.19;;;46.68;11.93
22830;BME280;11581;51.250;6.778;2023-07-08T11:07:30;101066.00;;;46.92;11.84
22830;BME280;11581;51.250;6.778;2023-07-08T11:10:01;101084.97;;;47.25;11.90
22830;BME280;11581;51.250;6.778;2023-07-08T11:12:32;101087.69;;;47.51;11.98
22830;BME280;11581;51.250;6.778;2023-07-08T11:15:05;101095.25;;;47.80;11.40
22830;BME280;11581;51.250;6.778;2023-07-08T11:17:37;101089.31;;;47.89;11.21
22830;BME280;11581;51.250;6.778;2023-07-08T11:20:14;101077.00;;;47.71;11.10
22830;BME280;11581;51.250;6.778;2023-07-08T11:22:50;101097.19;;;47.73;11.08
22830;BME280;11581;51.250;6.778;2023-07-08T11:25:20;101093.03;;;47.60;11.29
22830;BME280;11581;51.250;6.778;2023-07-08T11:27:49;101091.75;;;47.54;11.41
22830;BME280;11581;51.250;6.778;2023-07-08T11:30:21;101082.94;;;47.59;11.43
22830;BME280;11581;51.250;6.778;2023-07-08T11:32:57;101087.16;;;47.79;11.46
22830;BME280;11581;51.250;6.778;2023-07-08T11:35:35;101068.31;;;47.90;11.99
22830;BME280;11581;51.250;6.778;2023-07-08T11:38:04;101081.84;;;48.17;11.72
22830;BME280;11581;51.250;6.778;2023-07-08T11:40:38;101066.66;;;48.36;11.17
22830;BME280;11581;51.250;6.778;2023-07-08T11:43:15;101076.41;;;48.45;11.35
22830;BME280;11581;51.250;6.778;2023-07-08T11:45:43;101073.22;;;48.50;11.26
22830;BME280;11581;51.250;6.778;2023-07-08T11:48:13;101040.78;;;48.34;11.13
22830;BME280;11581;51.250;6.778;2023-07-08T11:50:42;101079.66;;;48.51;11.20
22830;BME280;11581;51.250;6.778;2023-07-08T11:53:13;101077.19;;;48.39;11.13
22830;BME280;11581;51.250;6.778;2023-07-08T11:55:43;101074.13;;;48.11;11.50
22830;BME280;11581;51.250;6.778;2023-07-08T11:58:19;101068.59;;;47.78;11.43
22830;BME280;11581;51.250;6.778;2023-07-08T12:00:52;101066.00;;;47.59;11.90
22830;BME280;11581;51.250;6.778;2023-07-08T12:03:22;101066.78;;;47.56;11.80
22830;BME280;11581;51.250;6.778;2023-07-08T12:05:49;101022.59;;;47.40;11.85
22830;BME280;11581;51.250;6.778;2023-07-08T12:08:19;101060.13;;;47.78;11.36
22830;BME280;11581;51.250;6.778;2023-07-08T12:10:48;101064.69;;;47.93;11.43
22830;BME280;11581;51.250;6.778;2023-07-08T12:13:17;101053.53;;;48.07;11.26
22830;BME280;11581;51.250;6.778;2023-07-08T12:15:45;101058.50;;;48.27;11.12
22830;BME280;11581;51.250;6.778;2023-07-08T12:18:14;101054.50;;;48.32;11.11
22830;BME280;11581;51.250;6.778;2023-07-08T12:20:45;101047.22;;;48.31;11.46
22830;BME280;11581;51.250;6.778;2023-07-08T12:23:14;101052.84;;;48.27;11.46
22830;BME280;11581;51.250;6.778;2023-07-08T12:25:42;101054.78;;;48.16;10.87
22830;BME280;11581;51.250;6.778;2023-07-08T12:28:10;101042.09;;;47.93;11.50
22830;BME280;11581;51.250;6.778;2023-07-08T12:30:39;101012.59;;;47.47;11.66
22830;BME280;11581;51.250;6.778;2023-07-08T12:33:11;100953.09;;;46.89;11.57
22830;BME280;11581;51.250;6.778;2023-07-08T12:35:39;101055.66;;;47.36;12.12
22830;BME280;11581;51.250;6.778;2023-07-08T12:38:15;101037.72;;;47.18;11.59
22830;BME280;11581;51.250;6.778;2023-07-08T12:40:45;101031.72;;;46.90;11.36
22830;BME280;11581;51.250;6.778;2023-07-08T12:43:12;101033.19;;;46.51;11.61
22830;BME280;11581;51.250;6.778;2023-07-08T12:45:40;101030.47;;;46.06;11.90
22830;BME280;11581;51.250;6.778;2023-07-08T12:48:08;101024.81;;;45.58;12.15
22830;BME280;11581;51.250;6.778;2023-07-08T12:50:35;101020.31;;;45.11;12.36
22830;BME280;11581;51.250;6.778;2023-07-08T12:53:04;101036.88;;;44.78;12.51
22830;BME280;11581;51.250;6.778;2023-07-08T12:55:35;101041.41;;;44.48;12.89
22830;BME280;11581;51.250;6.778;2023-07-08T12:58:04;101042.47;;;44.25;12.92
22830;BME280;11581;51.250;6.778;2023-07-08T13:04:26;101028.47;;;43.94;13.37